Time;durP1;ratioP1;P1;durP2;ratioP2;P2;SDS_P1;SDS_P2;PMS_P1;PMS_P2;Temp;Humidity;BMP_temperature;BMP_pressure;BME280_temperature;BME280_humidity;BME280_pressure;Samples;Min_cycle;Max_cycle;Signal;HPM_P1;HPM_P2
2022/03/03 00:01:42;;;;;;;26.52;8.32;;;-2.50;99.90;;;;;;5075881;28;20495;-69
2022/03/03 00:04:07;;;;;;;23.27;7.85;;;-2.50;99.90;;;;;;5075919;28;20162;-69
2022/03/03 00:06:34;;;;;;;22.83;7.63;;;-2.60;99.90;;;;;;5075444;28;20094;-69
2022/03/03 00:09:01;;;;;;;27.02;7.18;;;-2.70;99.90;;;;;;5075668;28;20123;-69
2022/03/03 00:11:26;;;;;;;15.07;7.47;;;-2.70;99.90;;;;;;5075430;28;20097;-69
2022/03/03 00:13:52;;;;;;;23.27;9.02;;;-2.70;99.90;;;;;;5075458;28;20425;-69
2022/03/03 00:16:18;;;;;;;23.60;7.55;;;-2.70;99.90;;;;;;5075598;28;20473;-69
2022/03/03 00:18:43;;;;;;;25.83;9.77;;;-2.70;99.90;;;;;;5075311;28;20056;-69
2022/03/03 00:21:09;;;;;;;38.65;10.30;;;-2.70;99.90;;;;;;5075570;28;20024;-68
2022/03/03 00:23:34;;;;;;;27.15;9.32;;;-2.70;99.90;;;;;;5075289;28;20079;-69
2022/03/03 00:26:00;;;;;;;22.08;7.85;;;-2.70;99.90;;;;;;5075517;28;20051;-69
2022/03/03 00:28:26;;;;;;;31.00;10.65;;;-2.70;99.90;;;;;;5075192;28;20024;-69
2022/03/03 00:30:52;;;;;;;25.15;9.35;;;-2.80;99.90;;;;;;5075055;28;20082;-69
2022/03/03 00:33:18;;;;;;;22.50;8.45;;;-2.80;99.90;;;;;;5075212;28;20024;-69
2022/03/03 00:35:43;;;;;;;30.42;9.23;;;-2.80;99.90;;;;;;5075015;28;20077;-69
2022/03/03 00:38:10;;;;;;;25.27;7.93;;;-2.90;99.90;;;;;;5074895;28;20088;-69
2022/03/03 00:40:36;;;;;;;24.88;9.23;;;-2.90;99.90;;;;;;5073850;28;20388;-68
2022/03/03 00:43:02;;;;;;;31.92;8.85;;;-2.90;99.90;;;;;;5074840;28;20019;-68
2022/03/03 00:45:28;;;;;;;21.88;8.38;;;-3.00;99.90;;;;;;5074867;28;20484;-69
2022/03/03 00:47:53;;;;;;;20.58;8.73;;;-3.00;99.90;;;;;;5075262;28;20025;-68
2022/03/03 00:50:19;;;;;;;29.25;9.82;;;-3.00;99.90;;;;;;5074901;28;20021;-69
2022/03/03 00:52:44;;;;;;;27.42;9.73;;;-3.00;99.90;;;;;;5074893;28;20469;-69
2022/03/03 00:55:10;;;;;;;21.08;8.77;;;-3.00;99.90;;;;;;5075201;28;20024;-69
2022/03/03 00:57:36;;;;;;;20.33;8.93;;;-3.00;99.90;;;;;;5074532;28;20054;-69
2022/03/03 01:00:05;;;;;;;20.52;9.07;;;-3.00;99.90;;;;;;5074579;28;20021;-68
2022/03/03 01:02:31;;;;;;;30.83;9.88;;;-2.90;99.90;;;;;;5074454;28;20484;-68
2022/03/03 01:04:56;;;;;;;32.75;10.90;;;-2.90;99.90;;;;;;5074729;28;20029;-69
2022/03/03 01:07:22;;;;;;;27.75;11.57;;;-2.90;99.90;;;;;;5074173;28;20036;-69
2022/03/03 01:09:47;;;;;;;32.90;10.35;;;-2.80;99.90;;;;;;5074924;28;20024;-69
2022/03/03 01:12:13;;;;;;;25.92;9.43;;;-2.80;99.90;;;;;;5074560;28;20081;-68
2022/03/03 01:14:38;;;;;;;31.83;11.15;;;-2.80;99.90;;;;;;5074277;28;20029;-69
2022/03/03 01:17:04;;;;;;;29.35;9.30;;;-2.80;99.90;;;;;;5074053;28;20051;-69
2022/03/03 01:19:30;;;;;;;19.80;9.88;;;-2.80;99.90;;;;;;5074146;28;20020;-69
2022/03/03 01:21:56;;;;;;;28.30;11.20;;;-2.80;99.90;;;;;;5074158;28;20032;-68
2022/03/03 01:24:21;;;;;;;34.20;10.63;;;-2.80;99.90;;;;;;5074311;28;20430;-69
2022/03/03 01:26:47;;;;;;;27.17;11.63;;;-2.70;99.90;;;;;;5073910;28;20060;-69
2022/03/03 01:29:13;;;;;;;28.70;10.55;;;-2.60;99.90;;;;;;5073969;28;20033;-68
2022/03/03 01:31:38;;;;;;;26.92;9.35;;;-2.70;99.90;;;;;;5073870;28;20029;-68
2022/03/03 01:34:04;;;;;;;24.17;9.63;;;-2.70;99.90;;;;;;5073902;28;20528;-69
2022/03/03 01:36:29;;;;;;;23.27;9.57;;;-2.80;99.90;;;;;;5073777;28;20024;-69
2022/03/03 01:38:55;;;;;;;25.65;9.35;;;-2.90;99.90;;;;;;5074073;28;20108;-68
2022/03/03 01:41:21;;;;;;;29.33;9.95;;;-2.90;99.90;;;;;;5073767;28;20051;-69
2022/03/03 01:43:47;;;;;;;21.27;9.88;;;-3.00;99.90;;;;;;5074120;28;20020;-68
2022/03/03 01:46:12;;;;;;;37.13;10.88;;;-3.00;99.90;;;;;;5073972;28;20032;-68
2022/03/03 01:48:38;;;;;;;32.35;11.57;;;-3.10;99.90;;;;;;5073653;28;20024;-69
2022/03/03 01:51:03;;;;;;;27.05;11.27;;;-3.10;99.90;;;;;;5073427;28;20029;-68
2022/03/03 01:53:29;;;;;;;48.78;12.75;;;-3.10;99.90;;;;;;5073453;28;20103;-69
2022/03/03 01:55:55;;;;;;;33.30;12.32;;;-3.20;99.90;;;;;;5073860;28;20025;-69
2022/03/03 01:58:21;;;;;;;33.25;12.57;;;-3.10;99.90;;;;;;5074020;28;20470;-68
2022/03/03 02:00:50;;;;;;;23.33;11.65;;;-3.10;99.90;;;;;;5073513;28;20048;-68
2022/03/03 02:03:15;;;;;;;30.70;11.40;;;-3.10;99.90;;;;;;5073755;28;20031;-68
2022/03/03 02:05:41;;;;;;;38.45;11.63;;;-3.10;99.90;;;;;;5072186;28;20021;-68
2022/03/03 02:08:07;;;;;;;36.40;11.45;;;-3.10;99.90;;;;;;5073302;28;20098;-68
2022/03/03 02:10:32;;;;;;;30.77;10.68;;;-3.10;99.90;;;;;;5073457;28;20021;-69
2022/03/03 02:12:58;;;;;;;35.08;11.98;;;-3.10;99.90;;;;;;5073879;28;20032;-68
2022/03/03 02:15:23;;;;;;;33.47;12.20;;;-3.10;99.90;;;;;;5073661;28;20518;-69
2022/03/03 02:17:49;;;;;;;32.70;12.98;;;-3.20;99.90;;;;;;5073250;28;20029;-69
2022/03/03 02:20:26;;;;;;;28.30;11.20;;;-3.20;99.90;;;;;;5073308;28;20392;-69
2022/03/03 02:22:53;;;;;;;31.23;10.98;;;-3.20;99.90;;;;;;5073292;28;20534;-68
2022/03/03 02:25:19;;;;;;;35.17;11.80;;;-3.20;99.90;;;;;;5073262;28;20036;-69
2022/03/03 02:27:46;;;;;;;27.15;11.25;;;-3.20;99.90;;;;;;5071900;28;20028;-69
2022/03/03 02:30:13;;;;;;;28.90;11.07;;;-3.30;99.90;;;;;;5073207;28;20020;-68
2022/03/03 02:32:39;;;;;;;27.63;11.18;;;-3.20;99.90;;;;;;5073073;28;20032;-69
2022/03/03 02:35:06;;;;;;;40.70;11.93;;;-3.30;99.90;;;;;;5073301;28;20020;-69
2022/03/03 02:37:37;;;;;;;28.73;10.32;;;-3.10;99.90;;;;;;5073164;28;20043;-69
2022/03/03 02:40:05;;;;;;;25.17;11.15;;;-3.20;99.90;;;;;;5073396;28;20017;-69
2022/03/03 02:42:30;;;;;;;29.83;12.15;;;-3.20;99.90;;;;;;5072995;28;20055;-69
2022/03/03 02:44:56;;;;;;;33.40;11.48;;;-3.20;99.90;;;;;;5073040;28;20481;-69
2022/03/03 02:47:22;;;;;;;33.58;11.60;;;-3.20;99.90;;;;;;5073008;28;20500;-68
2022/03/03 02:49:47;;;;;;;26.33;11.43;;;-3.10;99.90;;;;;;5073602;28;20021;-68
2022/03/03 02:52:13;;;;;;;28.27;11.90;;;-3.00;99.90;;;;;;5073189;28;20039;-68
2022/03/03 02:54:39;;;;;;;37.75;11.70;;;-2.90;99.90;;;;;;5071723;28;20016;-69
2022/03/03 02:59:48;;;;;;;28.35;13.30;;;-2.90;99.90;;;;;;5073317;28;20032;-68
2022/03/03 03:02:14;;;;;;;26.67;12.43;;;-2.90;99.90;;;;;;5073151;28;20461;-69
2022/03/03 03:04:40;;;;;;;39.90;13.80;;;-2.90;99.90;;;;;;5075477;28;20372;-69
2022/03/03 03:07:09;;;;;;;30.25;13.73;;;-2.90;99.90;;;;;;5075448;28;20544;-69
2022/03/03 03:09:35;;;;;;;24.85;13.00;;;-2.80;99.90;;;;;;5076678;28;20025;-70
2022/03/03 03:12:00;;;;;;;37.95;13.00;;;-2.80;99.90;;;;;;5076489;28;20025;-70
2022/03/03 03:14:26;;;;;;;32.88;14.40;;;-2.80;99.90;;;;;;5076586;28;20021;-70
2022/03/03 03:16:52;;;;;;;35.15;14.10;;;-2.80;99.90;;;;;;5076743;28;20457;-70
2022/03/03 03:19:17;;;;;;;35.85;13.23;;;-2.90;99.90;;;;;;5076765;28;20021;-70
2022/03/03 03:21:43;;;;;;;37.40;13.88;;;-2.90;99.90;;;;;;5076416;28;20473;-70
2022/03/03 03:24:08;;;;;;;31.27;13.63;;;-3.00;99.90;;;;;;5076700;28;20036;-70
2022/03/03 03:26:34;;;;;;;35.58;13.82;;;-3.00;99.90;;;;;;5076315;28;20431;-70
2022/03/03 03:28:59;;;;;;;35.63;13.73;;;-3.00;99.90;;;;;;5076315;28;20021;-71
2022/03/03 03:31:26;;;;;;;33.50;13.85;;;-3.10;99.90;;;;;;5076216;28;20024;-70
2022/03/03 03:33:52;;;;;;;39.10;14.52;;;-3.10;99.90;;;;;;5076468;28;20051;-70
2022/03/03 03:36:18;;;;;;;33.95;14.10;;;-3.10;99.90;;;;;;5076220;28;20400;-70
2022/03/03 03:38:46;;;;;;;32.58;14.25;;;-3.10;99.90;;;;;;5076087;28;20024;-70
2022/03/03 03:41:12;;;;;;;28.40;13.50;;;-3.10;99.90;;;;;;5076160;28;20067;-70
2022/03/03 03:43:38;;;;;;;30.00;15.07;;;-3.10;99.90;;;;;;5076109;28;20104;-70
2022/03/03 03:46:03;;;;;;;38.08;15.02;;;-3.20;99.90;;;;;;5076066;28;20060;-70
2022/03/03 03:48:30;;;;;;;37.70;14.50;;;-3.20;99.90;;;;;;5076161;28;20029;-70
2022/03/03 03:50:55;;;;;;;36.78;14.40;;;-3.10;99.90;;;;;;5075858;28;20028;-70
2022/03/03 03:53:21;;;;;;;32.45;13.55;;;-3.10;99.90;;;;;;5076202;28;20397;-70
2022/03/03 03:55:47;;;;;;;38.40;15.38;;;-3.20;99.90;;;;;;5075873;28;20028;-70
2022/03/03 03:58:12;;;;;;;36.40;15.57;;;-3.20;99.90;;;;;;5075669;28;20016;-70
2022/03/03 04:00:38;;;;;;;43.78;14.40;;;-3.10;99.90;;;;;;5075779;28;20439;-70
2022/03/03 04:03:03;;;;;;;33.58;14.75;;;-3.20;99.90;;;;;;5075953;28;20021;-70
2022/03/03 04:05:29;;;;;;;31.90;13.23;;;-3.20;99.90;;;;;;5075965;28;20109;-70
2022/03/03 04:07:54;;;;;;;31.75;12.95;;;-3.20;99.90;;;;;;5075476;28;20032;-70
2022/03/03 04:10:20;;;;;;;32.70;14.63;;;-3.30;99.90;;;;;;5075589;28;20021;-70
2022/03/03 04:12:46;;;;;;;41.28;15.57;;;-3.30;99.90;;;;;;5075484;28;20075;-70
2022/03/03 04:15:12;;;;;;;28.00;13.77;;;-3.30;99.90;;;;;;5075563;28;20024;-70
2022/03/03 04:17:38;;;;;;;30.83;13.63;;;-3.30;99.90;;;;;;5075687;28;20101;-70
2022/03/03 04:20:06;;;;;;;36.45;14.63;;;-3.40;99.90;;;;;;5075435;28;20052;-70
2022/03/03 04:22:32;;;;;;;33.70;13.20;;;-3.40;99.90;;;;;;5075509;28;20020;-70
2022/03/03 04:24:58;;;;;;;37.65;15.13;;;-3.50;99.90;;;;;;5075303;28;20032;-70
2022/03/03 04:27:23;;;;;;;39.13;14.13;;;-3.40;99.90;;;;;;5075137;28;20401;-70
2022/03/03 04:29:49;;;;;;;52.92;16.20;;;-3.40;99.90;;;;;;5075276;28;20400;-70
2022/03/03 04:32:15;;;;;;;38.75;14.32;;;-3.20;99.90;;;;;;5075118;28;20469;-70
2022/03/03 04:34:40;;;;;;;35.60;13.93;;;-3.30;99.90;;;;;;5075277;28;20020;-70
2022/03/03 04:37:06;;;;;;;36.10;14.23;;;-3.30;99.90;;;;;;5075253;28;20025;-70
2022/03/03 04:39:31;;;;;;;30.08;14.80;;;-3.40;99.90;;;;;;5075118;28;20025;-70
2022/03/03 04:41:58;;;;;;;43.38;16.55;;;-3.40;99.90;;;;;;5075055;28;20024;-70
2022/03/03 04:44:23;;;;;;;48.50;17.20;;;-3.40;99.90;;;;;;5074872;28;20476;-70
2022/03/03 04:46:49;;;;;;;40.00;16.25;;;-3.30;99.90;;;;;;5075086;28;20034;-70
2022/03/03 04:49:14;;;;;;;43.40;16.73;;;-3.30;99.90;;;;;;5074831;28;20032;-70
2022/03/03 04:51:40;;;;;;;55.35;15.80;;;-3.20;99.90;;;;;;5074675;28;20025;-70
2022/03/03 04:54:07;;;;;;;42.38;15.13;;;-3.10;99.90;;;;;;5074727;28;20468;-70
2022/03/03 04:56:34;;;;;;;33.15;15.88;;;-3.10;99.90;;;;;;5074860;28;20448;-70
2022/03/03 04:59:00;;;;;;;38.42;14.40;;;-3.10;99.90;;;;;;5074614;28;20464;-70
2022/03/03 05:01:25;;;;;;;34.40;15.90;;;-3.10;99.90;;;;;;5074818;28;20032;-70
2022/03/03 05:03:51;;;;;;;39.28;16.17;;;-3.10;99.90;;;;;;5074552;28;20094;-70
2022/03/03 05:06:17;;;;;;;126.35;19.90;;;-3.10;99.90;;;;;;5074434;28;20488;-70
2022/03/03 05:08:43;;;;;;;47.20;17.33;;;-3.00;99.90;;;;;;5075061;28;20040;-70
2022/03/03 05:11:09;;;;;;;50.55;17.52;;;-2.90;99.90;;;;;;5074570;28;20020;-70
2022/03/03 05:13:35;;;;;;;38.83;18.33;;;-2.70;99.90;;;;;;5074321;28;20032;-70
2022/03/03 05:16:02;;;;;;;41.83;17.52;;;-2.70;99.90;;;;;;5074366;28;20017;-70
2022/03/03 05:18:28;;;;;;;46.42;17.90;;;-2.70;99.90;;;;;;5074453;28;20379;-71
2022/03/03 05:20:53;;;;;;;35.58;16.40;;;-2.80;99.90;;;;;;5074151;28;20029;-71
2022/03/03 05:23:19;;;;;;;40.72;16.13;;;-3.00;99.90;;;;;;5074141;28;20115;-70
2022/03/03 05:25:45;;;;;;;35.00;15.07;;;-3.20;99.90;;;;;;5074562;28;20094;-70
2022/03/03 05:28:12;;;;;;;33.63;14.88;;;-3.30;99.90;;;;;;5073455;28;20024;-70
2022/03/03 05:30:38;;;;;;;38.25;13.45;;;-3.40;99.90;;;;;;5074236;28;20090;-70
2022/03/03 05:33:04;;;;;;;38.47;15.02;;;-3.60;99.90;;;;;;5074607;28;20016;-70
2022/03/03 05:35:30;;;;;;;32.15;15.27;;;-3.60;99.90;;;;;;5073900;28;20477;-70
2022/03/03 05:37:55;;;;;;;33.22;15.40;;;-3.70;99.90;;;;;;5074115;28;20421;-71
2022/03/03 05:40:21;;;;;;;47.00;15.60;;;-3.60;99.90;;;;;;5074140;28;20055;-70
2022/03/03 05:42:46;;;;;;;34.05;15.93;;;-3.60;99.90;;;;;;5073878;28;20052;-70
2022/03/03 05:45:12;;;;;;;30.95;15.73;;;-3.60;99.90;;;;;;5074078;28;20066;-70
2022/03/03 05:47:39;;;;;;;43.25;17.80;;;-3.70;99.90;;;;;;5073988;28;20039;-70
2022/03/03 05:50:05;;;;;;;37.22;14.75;;;-3.70;99.90;;;;;;5073763;28;20029;-70
2022/03/03 05:52:31;;;;;;;45.40;15.70;;;-3.80;99.90;;;;;;5073579;28;20024;-71
2022/03/03 05:54:57;;;;;;;48.17;18.13;;;-3.90;99.90;;;;;;5073711;28;20028;-71
2022/03/03 05:57:27;;;;;;;41.70;17.90;;;-3.90;99.90;;;;;;5073870;28;20542;-71
2022/03/03 05:59:53;;;;;;;44.28;16.95;;;-4.00;99.90;;;;;;5073489;28;20021;-71
2022/03/03 06:02:19;;;;;;;30.55;15.35;;;-4.00;99.90;;;;;;5073551;28;20051;-71
2022/03/03 06:04:48;;;;;;;38.50;15.90;;;-4.10;99.90;;;;;;5074109;28;20024;-71
2022/03/03 06:07:23;;;;;;;30.20;16.17;;;-4.10;99.90;;;;;;5073334;28;20032;-71
2022/03/03 06:09:52;;;;;;;38.35;16.45;;;-4.20;99.90;;;;;;5073791;28;20025;-71
2022/03/03 06:12:39;;;;;;;39.90;16.30;;;-4.20;99.90;;;;;;5073367;28;20111;-71
2022/03/03 06:15:06;;;;;;;29.92;15.80;;;-4.10;99.90;;;;;;5069255;28;20037;-71
2022/03/03 06:17:32;;;;;;;43.40;18.52;;;-4.10;99.90;;;;;;5073856;28;20123;-71
2022/03/03 06:20:01;;;;;;;46.22;18.20;;;-4.00;99.90;;;;;;5073692;28;20082;-71
2022/03/03 06:22:27;;;;;;;47.78;18.27;;;-3.90;99.90;;;;;;5073513;28;20029;-71
2022/03/03 06:24:53;;;;;;;58.47;19.90;;;-3.80;99.90;;;;;;5073338;28;20032;-71
2022/03/03 06:27:19;;;;;;;57.47;20.70;;;-3.70;99.90;;;;;;5073501;28;20021;-71
2022/03/03 06:29:44;;;;;;;41.55;19.83;;;-3.50;99.90;;;;;;5073305;28;20044;-71
2022/03/03 06:32:11;;;;;;;47.15;22.65;;;-3.20;99.90;;;;;;5073138;28;20028;-71
2022/03/03 06:34:37;;;;;;;58.47;25.50;;;-3.00;99.90;;;;;;5073167;28;20036;-71
2022/03/03 06:37:03;;;;;;;63.83;23.95;;;-2.80;99.90;;;;;;5073174;28;20021;-70
2022/03/03 06:39:29;;;;;;;52.70;22.58;;;-2.70;99.90;;;;;;5075701;28;20118;-71
2022/03/03 06:41:55;;;;;;;55.67;23.02;;;-2.70;99.90;;;;;;5077419;28;20029;-71
2022/03/03 06:44:21;;;;;;;50.00;21.95;;;-2.60;99.90;;;;;;5077299;28;20455;-71
2022/03/03 06:46:47;;;;;;;51.33;22.52;;;-2.50;99.90;;;;;;5077625;28;20028;-70
2022/03/03 06:49:13;;;;;;;54.38;23.38;;;-2.50;99.90;;;;;;5077461;28;20020;-71
2022/03/03 06:51:44;;;;;;;57.75;24.65;;;-2.50;99.90;;;;;;5077036;28;20032;-71
2022/03/03 06:54:18;;;;;;;51.58;21.10;;;-2.40;99.90;;;;;;5077146;28;20032;-71
2022/03/03 06:56:54;;;;;;;53.20;23.25;;;-2.40;99.90;;;;;;5077117;28;20500;-71
2022/03/03 06:59:22;;;;;;;40.80;20.38;;;-2.30;99.90;;;;;;5077301;28;20028;-71
2022/03/03 07:01:49;;;;;;;48.92;21.75;;;-2.30;99.90;;;;;;5076976;28;20029;-70
2022/03/03 07:04:16;;;;;;;45.17;21.92;;;-2.20;99.90;;;;;;5075516;28;20135;-71
2022/03/03 07:06:43;;;;;;;70.30;26.63;;;-2.10;99.90;;;;;;5076808;28;20027;-70
2022/03/03 07:09:09;;;;;;;51.47;21.75;;;-2.00;99.90;;;;;;5077072;28;20059;-71
2022/03/03 07:11:36;;;;;;;49.60;22.02;;;-1.90;99.90;;;;;;5076558;28;20051;-71
2022/03/03 07:14:02;;;;;;;49.75;22.20;;;-1.80;99.90;;;;;;5076902;28;20050;-71
2022/03/03 07:16:50;;;;;;;69.88;22.77;;;-1.70;99.90;;;;;;5076433;28;20031;-71
2022/03/03 07:19:45;;;;;;;65.78;25.35;;;-1.60;99.90;;;;;;5076479;28;20026;-71
2022/03/03 07:22:20;;;;;;;55.20;24.30;;;-1.40;99.90;;;;;;5077190;28;20021;-71
2022/03/03 07:24:47;;;;;;;51.78;24.58;;;-1.30;99.90;;;;;;5075201;28;20035;-71
2022/03/03 07:27:24;;;;;;;59.47;26.83;;;-1.20;99.90;;;;;;5076521;28;20084;-73
2022/03/03 07:30:07;;;;;;;59.50;26.58;;;-1.00;99.90;;;;;;5076342;28;20028;-70
2022/03/03 07:32:38;;;;;;;59.80;26.27;;;-0.90;99.90;;;;;;5076500;28;20027;-70
2022/03/03 07:35:15;;;;;;;57.25;26.42;;;-0.80;99.90;;;;;;5076227;28;20077;-70
2022/03/03 07:37:55;;;;;;;64.03;26.45;;;-0.80;99.90;;;;;;5076267;28;20016;-70
2022/03/03 07:40:20;;;;;;;52.17;26.90;;;-0.60;99.90;;;;;;5076464;28;20550;-71
2022/03/03 07:42:46;;;;;;;63.58;27.60;;;-0.50;99.90;;;;;;5076114;28;20028;-71
2022/03/03 07:45:12;;;;;;;83.15;30.33;;;-0.50;99.90;;;;;;5076175;28;20032;-71
2022/03/03 07:47:39;;;;;;;86.63;28.88;;;-0.50;99.90;;;;;;5076071;28;20047;-71
2022/03/03 07:50:06;;;;;;;57.85;28.00;;;-0.50;99.90;;;;;;5075461;28;20469;-71
2022/03/03 07:52:32;;;;;;;57.17;26.83;;;-0.40;99.90;;;;;;5076928;28;20040;-71
2022/03/03 07:54:58;;;;;;;51.55;24.73;;;-0.30;99.90;;;;;;5076216;28;20479;-71
2022/03/03 07:57:32;;;;;;;99.55;25.55;;;-0.20;99.90;;;;;;5076014;28;20024;-71
2022/03/03 08:00:06;;;;;;;79.50;26.17;;;-0.10;99.90;;;;;;5076164;28;20526;-71
2022/03/03 08:02:33;;;;;;;71.63;26.70;;;0.00;99.90;;;;;;5075744;28;20435;-71
2022/03/03 08:05:01;;;;;;;352.48;31.95;;;0.00;99.90;;;;;;5075755;28;20059;-71
2022/03/03 08:07:27;;;;;;;81.80;26.50;;;0.00;99.90;;;;;;5075495;28;20036;-70
2022/03/03 08:09:58;;;;;;;57.75;27.45;;;0.10;99.90;;;;;;5075686;28;20048;-71
2022/03/03 08:12:24;;;;;;;174.50;31.65;;;0.20;99.90;;;;;;5075463;28;20108;-71
2022/03/03 08:14:49;;;;;;;157.45;32.90;;;0.30;99.90;;;;;;5075515;28;20028;-70
2022/03/03 08:17:15;;;;;;;150.07;33.47;;;0.30;99.90;;;;;;5075422;28;20028;-71
2022/03/03 08:19:43;;;;;;;108.00;30.85;;;0.40;99.90;;;;;;5076015;28;20025;-71
2022/03/03 08:22:09;;;;;;;84.00;30.63;;;0.40;99.90;;;;;;5075410;28;20031;-71
2022/03/03 08:24:42;;;;;;;168.50;34.30;;;0.50;99.90;;;;;;5074061;28;20021;-71
2022/03/03 08:27:08;;;;;;;318.42;34.15;;;0.60;99.90;;;;;;5075577;28;20066;-70
2022/03/03 08:29:33;;;;;;;121.80;34.85;;;0.50;99.90;;;;;;5075255;28;20388;-70
2022/03/03 08:32:01;;;;;;;123.55;32.65;;;0.60;99.90;;;;;;5075715;28;20040;-70
2022/03/03 08:34:45;;;;;;;183.52;32.53;;;0.80;99.90;;;;;;5075162;28;20031;-70
2022/03/03 08:37:18;;;;;;;125.03;31.02;;;0.90;99.90;;;;;;5075098;28;20095;-70
2022/03/03 08:39:45;;;;;;;152.35;31.17;;;0.90;99.90;;;;;;5075276;28;20027;-70
2022/03/03 08:42:14;;;;;;;206.43;33.17;;;1.00;99.90;;;;;;5075053;28;20029;-71
2022/03/03 08:44:42;;;;;;;66.88;27.92;;;1.10;99.90;;;;;;5075160;28;20034;-71
2022/03/03 08:47:12;;;;;;;64.82;27.75;;;1.20;99.90;;;;;;5074882;28;20059;-71
2022/03/03 08:49:40;;;;;;;69.07;28.80;;;1.30;99.90;;;;;;5074784;28;20052;-71
2022/03/03 08:52:07;;;;;;;214.18;32.53;;;1.40;99.90;;;;;;5074733;28;20028;-71
2022/03/03 08:54:34;;;;;;;105.80;28.92;;;1.50;99.90;;;;;;5073426;28;20020;-71
2022/03/03 08:57:00;;;;;;;143.80;28.88;;;1.70;99.90;;;;;;5074639;28;20031;-70
2022/03/03 08:59:26;;;;;;;74.55;27.17;;;1.80;99.90;;;;;;5074611;28;20021;-71
2022/03/03 09:01:53;;;;;;;296.75;32.53;;;1.80;99.90;;;;;;5073674;28;20027;-71
2022/03/03 09:04:19;;;;;;;102.35;27.70;;;1.90;99.90;;;;;;5075140;28;20016;-71
2022/03/03 09:06:45;;;;;;;257.00;33.53;;;2.00;99.90;;;;;;5074233;28;20413;-71
2022/03/03 09:09:12;;;;;;;256.63;30.55;;;2.20;99.90;;;;;;5095790;23;20040;-72
2022/03/03 09:11:39;;;;;;;120.32;26.23;;;2.30;99.90;;;;;;5074659;28;20029;-71
2022/03/03 09:14:04;;;;;;;252.13;32.45;;;2.30;99.90;;;;;;5074478;28;20016;-71
2022/03/03 09:16:30;;;;;;;165.73;32.05;;;2.50;99.90;;;;;;5074390;28;20092;-70
2022/03/03 09:18:56;;;;;;;81.80;28.80;;;2.50;99.90;;;;;;5074293;28;20025;-70
2022/03/03 09:21:21;;;;;;;148.15;30.65;;;2.50;99.90;;;;;;5074210;28;20103;-70
2022/03/03 09:23:47;;;;;;;156.52;33.70;;;2.60;99.90;;;;;;5074153;28;20070;-70
2022/03/03 09:26:12;;;;;;;106.22;31.30;;;2.70;99.90;;;;;;5074116;28;20032;-70
2022/03/03 09:28:38;;;;;;;159.30;29.88;;;2.70;99.90;;;;;;5074027;28;20035;-70
2022/03/03 09:31:04;;;;;;;234.63;31.15;;;2.80;99.90;;;;;;5073941;28;20064;-70
2022/03/03 09:33:29;;;;;;;99.35;27.33;;;2.70;99.90;;;;;;5074093;28;20016;-70
2022/03/03 09:35:55;;;;;;;66.35;28.08;;;2.70;99.90;;;;;;5074011;28;20056;-71
2022/03/03 09:38:21;;;;;;;66.32;27.58;;;2.90;99.90;;;;;;5073932;28;20040;-70
2022/03/03 09:40:50;;;;;;;105.53;28.33;;;3.00;99.90;;;;;;5074198;28;20016;-70
2022/03/03 09:43:16;;;;;;;144.20;25.73;;;3.10;99.90;;;;;;5073851;28;20495;-69
2022/03/03 09:45:42;;;;;;;50.40;22.92;;;2.90;99.90;;;;;;5073825;28;20086;-69
2022/03/03 09:48:09;;;;;;;115.15;27.73;;;3.00;99.90;;;;;;5074317;28;20048;-68
2022/03/03 09:50:39;;;;;;;100.40;24.48;;;3.10;99.90;;;;;;5073843;28;20067;-69
2022/03/03 09:53:07;;;;;;;45.13;21.20;;;3.30;99.90;;;;;;5073708;28;20445;-70
2022/03/03 09:55:32;;;;;;;39.72;20.70;;;3.60;99.90;;;;;;5073971;28;20115;-70
2022/03/03 09:57:58;;;;;;;41.47;21.13;;;3.80;99.90;;;;;;5073673;28;20448;-70
2022/03/03 10:00:25;;;;;;;43.22;22.63;;;4.00;99.90;;;;;;5073725;28;20032;-70
2022/03/03 10:02:55;;;;;;;52.25;24.58;;;4.00;99.90;;;;;;5074186;28;20486;-70
2022/03/03 10:05:35;;;;;;;42.63;22.08;;;4.00;99.90;;;;;;5073548;28;20025;-71
2022/03/03 10:08:09;;;;;;;44.42;22.65;;;4.10;99.90;;;;;;5073528;28;20037;-71
2022/03/03 10:10:40;;;;;;;33.25;18.55;;;4.20;99.90;;;;;;5073783;28;20056;-71
2022/03/03 10:13:06;;;;;;;31.67;17.60;;;3.90;99.90;;;;;;5073490;28;20094;-71
2022/03/03 10:15:33;;;;;;;28.00;16.77;;;3.80;99.90;;;;;;5073494;28;20492;-71
2022/03/03 10:18:12;;;;;;;30.65;18.00;;;3.90;99.90;;;;;;5073420;28;20114;-71
2022/03/03 10:20:56;;;;;;;36.17;17.52;;;3.90;99.90;;;;;;5073410;28;20016;-70
2022/03/03 10:23:27;;;;;;;30.27;17.50;;;3.90;99.90;;;;;;5073343;28;20025;-70
2022/03/03 10:25:54;;;;;;;29.98;18.00;;;4.10;99.90;;;;;;5073279;28;20519;-70
2022/03/03 10:28:31;;;;;;;30.00;17.67;;;4.20;99.90;;;;;;5073201;28;20430;-70
2022/03/03 10:31:05;;;;;;;27.17;15.82;;;4.10;99.90;;;;;;5073527;28;20024;-70
2022/03/03 10:33:45;;;;;;;24.35;15.02;;;4.00;99.90;;;;;;5073430;28;20025;-70
2022/03/03 10:36:18;;;;;;;35.78;17.58;;;4.00;99.90;;;;;;5073615;28;20067;-70
2022/03/03 10:38:50;;;;;;;34.13;19.27;;;4.00;99.90;;;;;;5073503;28;20109;-70
2022/03/03 10:41:43;;;;;;;28.23;17.90;;;4.00;99.90;;;;;;5073492;28;20036;-70
2022/03/03 10:44:19;;;;;;;22.50;15.13;;;3.90;99.90;;;;;;5073655;28;20032;-70
2022/03/03 10:47:00;;;;;;;29.40;16.77;;;3.90;99.90;;;;;;5073406;28;20024;-70
2022/03/03 10:49:27;;;;;;;27.48;18.15;;;3.90;99.90;;;;;;5073272;28;20032;-70
2022/03/03 10:51:53;;;;;;;30.33;20.00;;;4.10;99.90;;;;;;5072920;28;20025;-71
2022/03/03 10:54:20;;;;;;;31.63;18.95;;;4.30;99.90;;;;;;5072942;28;20392;-71
2022/03/03 10:56:49;;;;;;;30.20;17.92;;;4.60;99.90;;;;;;5073002;28;20052;-72
2022/03/03 10:59:22;;;;;;;26.17;13.43;;;5.20;99.90;;;;;;5072893;28;20369;-70
2022/03/03 11:01:49;;;;;;;20.08;12.38;;;5.70;99.90;;;;;;5073154;28;20055;-71
2022/03/03 11:04:18;;;;;;;20.05;11.48;;;6.00;99.90;;;;;;5073182;28;20029;-72
2022/03/03 11:06:45;;;;;;;14.88;11.05;;;6.20;99.90;;;;;;5073097;28;20020;-72
2022/03/03 11:09:10;;;;;;;16.80;11.07;;;6.50;99.90;;;;;;5072782;28;20088;-72
2022/03/03 11:11:36;;;;;;;17.02;11.73;;;6.80;99.90;;;;;;5072965;28;20103;-71
2022/03/03 11:14:02;;;;;;;13.80;10.18;;;7.10;99.90;;;;;;5073108;28;20031;-71
2022/03/03 11:16:28;;;;;;;15.10;10.95;;;7.30;99.90;;;;;;5072960;28;20032;-71
2022/03/03 11:18:54;;;;;;;17.27;11.20;;;7.50;99.90;;;;;;5072852;28;20376;-71
2022/03/03 11:21:20;;;;;;;13.43;8.80;;;7.60;99.90;;;;;;5073059;28;20025;-71
2022/03/03 11:23:52;;;;;;;16.75;10.02;;;7.70;99.90;;;;;;5072729;28;20481;-71
2022/03/03 11:26:24;;;;;;;14.68;8.98;;;7.90;99.90;;;;;;5076230;28;20051;-71
2022/03/03 11:29:16;;;;;;;14.85;8.95;;;7.70;99.90;;;;;;5076365;28;20039;-71
2022/03/03 11:32:07;;;;;;;14.43;8.57;;;7.40;99.90;;;;;;5076203;28;20035;-71
2022/03/03 11:34:32;;;;;;;13.85;8.82;;;7.40;99.90;;;;;;5076582;28;20033;-71
2022/03/03 11:37:09;;;;;;;15.35;8.85;;;7.60;99.90;;;;;;5076554;28;20063;-71
2022/03/03 11:39:46;;;;;;;13.35;8.45;;;8.00;99.90;;;;;;5076453;28;20024;-71
2022/03/03 11:42:31;;;;;;;13.20;8.18;;;8.00;99.90;;;;;;5076219;28;20086;-71
2022/03/03 11:45:16;;;;;;;14.25;8.10;;;8.20;99.90;;;;;;5076465;28;20031;-71
2022/03/03 11:47:47;;;;;;;14.57;7.65;;;8.40;99.90;;;;;;5076356;28;20028;-73
2022/03/03 11:50:22;;;;;;;17.13;8.07;;;8.70;99.90;;;;;;5076159;28;20029;-70
2022/03/03 11:52:57;;;;;;;17.88;8.00;;;8.90;99.90;;;;;;5076150;28;20025;-70
2022/03/03 11:55:33;;;;;;;11.75;6.45;;;9.20;99.90;;;;;;5076218;28;20388;-69
2022/03/03 11:58:06;;;;;;;12.82;7.38;;;9.40;99.90;;;;;;5075885;28;20103;-71
2022/03/03 12:00:47;;;;;;;12.70;7.35;;;9.40;99.90;;;;;;5075876;28;20034;-71
2022/03/03 12:03:22;;;;;;;11.75;7.07;;;9.80;99.90;;;;;;5076393;28;20021;-72
2022/03/03 12:06:02;;;;;;;16.30;7.25;;;10.10;99.90;;;;;;5076352;28;20031;-70
2022/03/03 12:08:29;;;;;;;11.43;7.72;;;10.30;99.90;;;;;;5075671;28;20507;-71
2022/03/03 12:11:11;;;;;;;12.07;7.53;;;10.60;99.90;;;;;;5076132;28;20020;-71
2022/03/03 12:13:39;;;;;;;11.82;6.97;;;10.90;99.90;;;;;;5075619;28;20514;-71
2022/03/03 12:16:30;;;;;;;11.43;7.15;;;11.20;99.90;;;;;;5075808;28;20110;-71
2022/03/03 12:18:55;;;;;;;14.43;7.78;;;11.40;99.90;;;;;;5075580;28;20021;-75
2022/03/03 12:21:40;;;;;;;14.82;7.85;;;11.80;99.90;;;;;;5075936;28;20400;-78
2022/03/03 12:24:15;;;;;;;16.90;8.23;;;11.90;99.90;;;;;;5075742;28;20025;-72
2022/03/03 12:26:55;;;;;;;10.15;6.80;;;12.00;99.90;;;;;;5075503;28;20074;-72
2022/03/03 12:29:30;;;;;;;12.50;7.18;;;11.90;99.90;;;;;;5075318;28;20032;-75
2022/03/03 12:31:55;;;;;;;9.30;6.93;;;12.10;99.90;;;;;;5074037;28;20391;-75
2022/03/03 12:34:21;;;;;;;12.30;7.70;;;12.40;99.90;;;;;;5075505;28;20021;-75
2022/03/03 12:36:46;;;;;;;12.10;7.85;;;12.50;99.90;;;;;;5075130;28;20102;-74
2022/03/03 12:39:16;;;;;;;12.52;6.47;;;12.80;99.90;;;;;;5075439;28;20079;-74